Time;durP1;ratioP1;P1;durP2;ratioP2;P2;SDS_P1;SDS_P2;PMS_P1;PMS_P2;Temp;Humidity;BMP_temperature;BMP_pressure;BME280_temperature;BME280_humidity;BME280_pressure;Samples;Min_cycle;Max_cycle;Signal;HPM_P1;HPM_P2
2021/06/04 00:00:11;;;;;;;;;9.75;9.00;;;;;21.18;65.57;101661.88;4973700;28;45442;-78
2021/06/04 00:02:37;;;;;;;;;10.50;8.25;;;;;21.15;65.95;101670.16;4971840;28;47222;-78
2021/06/04 00:05:04;;;;;;;;;9.75;9.75;;;;;21.19;66.01;101681.44;4973746;28;45910;-76
2021/06/04 00:07:29;;;;;;;;;7.50;7.25;;;;;21.15;66.33;101661.28;4970213;28;45423;-79
2021/06/04 00:09:55;;;;;;;;;10.25;10.25;;;;;21.15;65.81;101661.28;4973609;28;45484;-78
2021/06/04 00:12:20;;;;;;;;;8.00;7.25;;;;;21.11;66.46;101669.50;4970558;28;45459;-80
2021/06/04 00:14:45;;;;;;;;;9.75;7.75;;;;;21.12;66.28;101675.72;4971973;28;45583;-79
2021/06/04 00:17:18;;;;;;;;;12.00;9.00;;;;;21.11;66.54;101671.34;4971730;28;45562;-79
2021/06/04 00:19:44;;;;;;;;;12.25;10.25;;;;;21.09;66.11;101676.78;4971877;28;45421;-77
2021/06/04 00:22:21;;;;;;;;;7.50;7.50;;;;;21.07;66.53;101684.06;4972627;28;46044;-78
2021/06/04 00:24:49;;;;;;;;;10.00;8.25;;;;;21.10;66.70;101691.88;4969596;28;45464;-78
2021/06/04 00:27:14;;;;;;;;;11.00;9.25;;;;;21.11;66.85;101709.59;4970060;28;45297;-79
2021/06/04 00:29:42;;;;;;;;;8.00;8.00;;;;;21.11;66.58;101712.28;4973723;28;46095;-79
2021/06/04 00:32:08;;;;;;;;;10.25;8.75;;;;;21.14;66.84;101710.34;4973464;28;46019;-79
2021/06/04 00:34:34;;;;;;;;;13.50;12.00;;;;;21.14;66.91;101715.69;4973737;28;45942;-78
2021/06/04 00:36:59;;;;;;;;;10.25;9.50;;;;;21.14;67.30;101724.56;4970280;28;45582;-79
2021/06/04 00:39:29;;;;;;;;;15.25;15.25;;;;;21.14;66.71;101710.34;4969389;28;45353;-79
2021/06/04 00:41:58;;;;;;;;;16.00;15.25;;;;;21.09;67.22;101711.53;4971688;28;46692;-78
2021/06/04 00:44:25;;;;;;;;;15.50;15.00;;;;;21.06;67.82;101695.72;4973075;28;45774;-79
2021/06/04 00:46:51;;;;;;;;;20.00;16.25;;;;;21.08;67.72;101693.78;4969598;28;45405;-80
2021/06/04 00:49:17;;;;;;;;;16.75;14.00;;;;;21.08;67.84;101700.94;4975206;28;45408;-79
2021/06/04 00:51:50;;;;;;;;;13.25;12.00;;;;;21.07;67.99;101702.75;4972103;28;45661;-79
2021/06/04 00:54:17;;;;;;;;;15.75;14.50;;;;;21.06;67.90;101706.41;4976417;28;45562;-80
2021/06/04 00:56:45;;;;;;;;;18.00;14.75;;;;;21.10;68.08;101718.59;4976198;28;45451;-81
2021/06/04 00:59:11;;;;;;;;;22.00;16.75;;;;;21.10;68.19;101720.41;4974440;28;45229;-79
2021/06/04 01:01:37;;;;;;;;;19.00;16.00;;;;;21.12;68.04;101721.16;4976575;28;46481;-79
2021/06/04 01:04:08;;;;;;;;;18.75;14.75;;;;;21.15;67.58;101720.94;4976126;28;45483;-79
2021/06/04 01:06:40;;;;;;;;;18.75;16.00;;;;;21.18;67.87;101726.03;4972827;28;45517;-78
2021/06/04 01:09:25;;;;;;;;;22.00;18.75;;;;;21.21;68.44;101749.03;4974252;28;45853;-76
2021/06/04 01:12:15;;;;;;;;;25.75;22.25;;;;;21.26;67.90;101757.59;4973673;28;46209;-78
2021/06/04 01:15:23;;;;;;;;;26.75;19.50;;;;;21.24;68.32;101746.13;4990184;28;45532;-80
2021/06/04 01:18:02;;;;;;;;;26.50;20.00;;;;;21.20;68.77;101740.19;4968808;28;45425;-80
2021/06/04 01:20:29;;;;;;;;;27.50;22.75;;;;;21.17;69.29;101740.38;4975699;28;45465;-80
2021/06/04 01:23:37;;;;;;;;;26.75;24.25;;;;;21.20;69.53;101745.53;4972645;28;45365;-81
2021/06/04 01:26:03;;;;;;;;;24.00;20.50;;;;;21.23;69.50;101753.31;4974195;28;45941;-80
2021/06/04 01:28:32;;;;;;;;;28.00;24.00;;;;;21.26;69.43;101739.72;4973212;28;45436;-81
2021/06/04 01:31:06;;;;;;;;;30.00;24.00;;;;;21.28;69.43;101728.91;4970236;28;45567;-81
2021/06/04 01:33:42;;;;;;;;;30.00;25.50;;;;;21.27;69.24;101732.56;4973301;28;46283;-80
2021/06/04 01:36:08;;;;;;;;;31.50;23.00;;;;;21.25;69.13;101737.19;4973575;28;45901;-80
2021/06/04 01:38:39;;;;;;;;;31.00;26.25;;;;;21.26;69.63;101741.56;4973765;28;45455;-78
2021/06/04 01:41:09;;;;;;;;;27.25;24.00;;;;;21.26;69.27;101744.22;4972785;28;45569;-81
2021/06/04 01:43:47;;;;;;;;;25.50;23.25;;;;;21.23;69.28;101733.75;4968543;28;46564;-81
2021/06/04 01:46:19;;;;;;;;;30.75;23.00;;;;;21.24;69.77;101719.41;4973865;28;45887;-81
2021/06/04 01:48:49;;;;;;;;;27.00;26.00;;;;;21.22;69.40;101713.31;4967738;28;45478;-81
2021/06/04 01:51:26;;;;;;;;;29.50;26.25;;;;;21.19;69.20;101724.22;4973622;28;45436;-80
2021/06/04 01:53:58;;;;;;;;;30.25;26.75;;;;;21.10;70.06;101717.75;4972134;28;46087;-81
2021/06/04 01:56:51;;;;;;;;;26.25;24.25;;;;;21.08;70.25;101709.81;4972507;28;45969;-80
2021/06/04 01:59:26;;;;;;;;;28.25;25.25;;;;;21.05;69.97;101702.03;4970334;28;45510;-81
2021/06/04 02:01:52;;;;;;;;;30.50;24.75;;;;;21.02;69.96;101693.38;4975718;28;45659;-81
2021/06/04 02:04:23;;;;;;;;;29.75;25.25;;;;;20.93;69.90;101694.88;4975129;28;45720;-81
2021/06/04 02:06:48;;;;;;;;;20.50;20.25;;;;;20.92;69.65;101695.00;4971661;28;45372;-79
2021/06/04 02:09:18;;;;;;;;;26.50;22.75;;;;;20.90;68.98;101700.44;4975989;28;45503;-81
2021/06/04 02:11:44;;;;;;;;;30.25;25.50;;;;;20.86;69.30;101698.94;4974182;28;45298;-82
2021/06/04 02:14:13;;;;;;;;;25.25;21.50;;;;;20.81;69.52;101695.75;4970825;28;47514;-84
2021/06/04 02:17:00;;;;;;;;;28.50;19.75;;;;;20.75;69.81;101696.19;4976440;28;45456;-84
2021/06/04 02:19:38;;;;;;;;;24.25;20.75;;;;;20.69;70.41;101704.63;4975106;28;45297;-82
2021/06/04 02:22:36;;;;;;;;;29.75;19.00;;;;;20.63;70.84;101697.06;4971560;28;47944;-84
2021/06/04 02:25:09;;;;;;;;;32.50;26.75;;;;;20.57;70.40;101709.03;4974837;28;45800;-84
2021/06/04 02:27:43;;;;;;;;;29.25;26.50;;;;;20.53;71.18;101707.53;4972085;28;45715;-85
2021/06/04 02:30:20;;;;;;;;;30.25;23.75;;;;;20.53;71.88;101713.72;4969798;28;45667;-83
2021/06/04 02:32:52;;;;;;;;;27.25;22.75;;;;;20.49;71.80;101712.22;4973716;28;45594;-84
2021/06/04 02:35:28;;;;;;;;;26.00;24.25;;;;;20.62;71.99;101738.06;4975121;28;47648;-84
2021/06/04 02:38:01;;;;;;;;;29.00;27.50;;;;;20.65;71.70;101744.06;4976041;28;45503;-83
2021/06/04 02:40:31;;;;;;;;;31.25;24.00;;;;;20.69;71.10;101744.72;4971856;28;45460;-82
2021/06/04 02:43:25;;;;;;;;;27.25;22.50;;;;;20.69;71.55;101750.91;4971328;28;45512;-82
2021/06/04 02:45:55;;;;;;;;;30.50;27.75;;;;;20.73;72.03;101759.56;4971433;28;47064;-81
2021/06/04 02:48:24;;;;;;;;;26.75;26.00;;;;;20.73;71.86;101749.72;4974371;28;45471;-83
2021/06/04 02:50:54;;;;;;;;;30.25;27.00;;;;;20.74;72.00;101761.28;4975685;28;45518;-83
2021/06/04 02:53:38;;;;;;;;;28.25;25.00;;;;;20.74;71.55;101774.63;4974227;28;45430;-82
2021/06/04 02:56:09;;;;;;;;;28.75;26.75;;;;;20.72;71.31;101809.44;4975762;28;45432;-84
2021/06/04 02:58:38;;;;;;;;;28.25;25.00;;;;;20.63;71.95;101833.28;4974692;28;45739;-85
2021/06/04 03:01:06;;;;;;;;;26.50;24.00;;;;;20.55;72.21;101834.63;4971210;28;45273;-82
2021/06/04 03:03:31;;;;;;;;;27.00;23.00;;;;;20.48;72.91;101803.97;4974487;28;45257;-82
2021/06/04 03:05:57;;;;;;;;;22.00;18.00;;;;;20.41;75.45;101735.91;4975327;28;45488;-82
2021/06/04 03:08:24;;;;;;;;;23.50;20.00;;;;;20.21;80.86;101725.72;4975400;28;45427;-78
2021/06/04 03:10:52;;;;;;;;;21.50;20.00;;;;;19.98;83.61;101730.78;4990721;28;45523;-83
2021/06/04 03:13:28;;;;;;;;;27.00;26.00;;;;;19.78;78.26;101718.78;4972880;28;47423;-81
2021/06/04 03:15:57;;;;;;;;;25.25;21.75;;;;;19.60;79.48;101692.47;4971916;28;45495;-79
2021/06/04 03:18:33;;;;;;;;;29.25;21.25;;;;;19.49;78.51;101671.81;4970244;28;45781;-80
2021/06/04 03:21:00;;;;;;;;;30.75;24.00;;;;;19.49;77.70;101669.13;4960009;28;45619;-81
2021/06/04 03:23:35;;;;;;;;;22.00;18.50;;;;;19.50;77.74;101660.19;4973964;28;47704;-81
2021/06/04 03:26:03;;;;;;;;;26.00;21.25;;;;;19.54;78.04;101669.69;4974191;28;45464;-82
2021/06/04 03:28:29;;;;;;;;;23.50;20.25;;;;;19.59;77.00;101674.72;4986089;28;45696;-83
2021/06/04 03:30:55;;;;;;;;;24.00;21.00;;;;;19.59;78.55;101667.59;4970846;28;45325;-83
2021/06/04 03:33:25;;;;;;;;;21.75;21.25;;;;;19.62;77.09;101671.88;4970645;28;45460;-83
2021/06/04 03:35:51;;;;;;;;;27.50;23.50;;;;;19.56;75.32;101657.94;4972144;28;46008;-84
2021/06/04 03:38:18;;;;;;;;;25.50;25.00;;;;;19.45;76.58;101655.13;4973241;28;45516;-83
2021/06/04 03:40:44;;;;;;;;;29.75;24.25;;;;;19.45;75.58;101643.63;4973864;28;45501;-85
2021/06/04 03:43:13;;;;;;;;;31.00;26.75;;;;;19.40;75.66;101640.41;4974608;28;45310;-83
2021/06/04 03:45:41;;;;;;;;;30.25;26.50;;;;;19.36;76.21;101647.75;4972855;28;46894;-84
2021/06/04 03:48:09;;;;;;;;;31.50;29.50;;;;;19.37;76.52;101641.47;4970557;28;45417;-84
2021/06/04 03:50:35;;;;;;;;;31.75;27.50;;;;;19.32;76.01;101635.59;4975109;28;45364;-83
2021/06/04 03:53:03;;;;;;;;;36.25;30.75;;;;;19.29;75.53;101620.63;4972036;28;45473;-84
2021/06/04 03:55:28;;;;;;;;;28.75;26.00;;;;;19.31;76.08;101615.19;4973709;28;45599;-83
2021/06/04 03:57:55;;;;;;;;;33.25;25.75;;;;;19.33;75.22;101607.97;4970357;28;45474;-83
2021/06/04 04:00:28;;;;;;;;;32.75;28.00;;;;;19.35;75.71;101616.72;4969782;28;45806;-82
2021/06/04 04:02:55;;;;;;;;;28.75;27.50;;;;;19.38;75.81;101613.84;4972374;28;45436;-83
2021/06/04 04:05:21;;;;;;;;;27.75;27.75;;;;;19.42;75.77;101610.03;4972845;28;45480;-81
2021/06/04 04:07:47;;;;;;;;;31.25;28.00;;;;;19.50;75.80;101609.53;4974967;28;45912;-82
2021/06/04 04:10:12;;;;;;;;;34.25;28.50;;;;;19.52;75.82;101605.81;4974691;28;45305;-81
2021/06/04 04:12:39;;;;;;;;;34.00;29.25;;;;;19.61;74.50;101614.16;4970342;28;45536;-79
2021/06/04 04:15:07;;;;;;;;;31.00;28.75;;;;;19.62;75.19;101614.06;4968779;28;45384;-81
2021/06/04 04:17:33;;;;;;;;;30.00;28.50;;;;;19.61;75.08;101603.50;4963217;28;45846;-80
2021/06/04 04:19:58;;;;;;;;;36.50;29.25;;;;;19.75;74.52;101624.78;4974781;28;45317;-80
2021/06/04 04:22:24;;;;;;;;;29.25;25.75;;;;;19.76;74.79;101616.66;4972600;28;45861;-79
2021/06/04 04:24:50;;;;;;;;;34.00;26.25;;;;;19.80;74.18;101617.31;4975995;28;45554;-81
2021/06/04 04:27:16;;;;;;;;;30.25;27.00;;;;;19.85;74.33;101622.34;4973724;28;47020;-81
2021/06/04 04:29:41;;;;;;;;;29.00;25.25;;;;;19.85;74.38;101617.84;4976093;28;45307;-81
2021/06/04 04:32:13;;;;;;;;;34.00;29.00;;;;;19.88;73.56;101620.28;4974613;28;45485;-82
2021/06/04 04:34:41;;;;;;;;;31.50;29.50;;;;;19.81;74.15;101603.88;4975179;28;45443;-81
2021/06/04 04:37:07;;;;;;;;;32.25;29.00;;;;;19.87;73.87;101605.25;4973321;28;45479;-82
2021/06/04 04:39:37;;;;;;;;;31.25;27.75;;;;;19.89;73.64;101600.69;4973874;28;45456;-82
2021/06/04 04:42:06;;;;;;;;;32.50;28.25;;;;;19.94;73.61;101603.00;4973464;28;45536;-81
2021/06/04 04:44:34;;;;;;;;;31.50;29.00;;;;;19.95;73.91;101608.28;4971151;28;46126;-81
2021/06/04 04:47:00;;;;;;;;;31.00;26.50;;;;;19.97;73.79;101598.34;4974863;28;45502;-80
2021/06/04 04:49:26;;;;;;;;;27.75;24.75;;;;;20.16;73.17;101599.75;4973656;28;45622;-81
2021/06/04 04:51:51;;;;;;;;;28.25;26.25;;;;;20.26;73.64;101600.81;4976706;28;45414;-81
2021/06/04 04:54:18;;;;;;;;;28.00;25.25;;;;;20.34;73.46;101599.28;4973971;28;46437;-81
2021/06/04 04:56:43;;;;;;;;;30.00;26.75;;;;;20.36;73.25;101592.97;4977576;28;45432;-82
2021/06/04 04:59:10;;;;;;;;;28.25;26.25;;;;;20.40;72.64;101594.47;4977144;28;45321;-83
2021/06/04 05:01:36;;;;;;;;;33.25;30.00;;;;;20.37;73.08;101576.03;4973542;28;45437;-81
2021/06/04 05:04:04;;;;;;;;;30.25;26.75;;;;;20.43;72.45;101581.78;4975338;28;46301;-83
2021/06/04 05:06:29;;;;;;;;;35.25;27.75;;;;;20.28;71.75;101572.19;4972734;28;45878;-81
2021/06/04 05:08:55;;;;;;;;;32.00;27.25;;;;;20.26;72.42;101576.78;4974606;28;45501;-78
2021/06/04 05:11:20;;;;;;;;;30.25;26.25;;;;;20.15;72.10;101572.22;4976885;28;45524;-81
2021/06/04 05:13:46;;;;;;;;;26.75;25.50;;;;;20.11;72.39;101583.19;4973342;28;46684;-79
2021/06/04 05:16:12;;;;;;;;;30.25;27.75;;;;;20.07;72.41;101580.72;4976077;28;45349;-84
2021/06/04 05:18:38;;;;;;;;;31.25;26.50;;;;;20.06;71.87;101603.03;4976254;28;45706;-81
2021/06/04 05:21:06;;;;;;;;;26.25;23.75;;;;;20.04;72.65;101666.31;4972448;28;45543;-76
2021/06/04 05:23:32;;;;;;;;;25.00;23.75;;;;;19.99;73.12;101719.16;4972558;28;45599;-80
2021/06/04 05:25:58;;;;;;;;;27.00;24.50;;;;;19.94;73.06;101726.63;4976707;28;45448;-83
2021/06/04 05:28:26;;;;;;;;;31.00;26.25;;;;;19.87;73.61;101727.97;4972367;28;45233;-79
2021/06/04 05:30:55;;;;;;;;;29.00;27.50;;;;;19.83;73.24;101745.13;4972397;28;46738;-83
2021/06/04 05:33:23;;;;;;;;;26.00;24.50;;;;;19.83;73.47;101770.94;4974611;28;46196;-83
2021/06/04 05:35:50;;;;;;;;;24.75;21.25;;;;;19.79;74.21;101778.31;4974687;28;45661;-80
2021/06/04 05:38:16;;;;;;;;;21.00;20.00;;;;;19.80;77.97;101801.34;4973822;28;45408;-79
2021/06/04 05:40:47;;;;;;;;;21.75;20.00;;;;;19.63;88.89;101820.25;4975772;28;45511;-78
2021/06/04 05:43:15;;;;;;;;;22.75;19.50;;;;;19.34;94.32;101824.72;4975065;28;45722;-78
2021/06/04 05:45:44;;;;;;;;;15.00;12.75;;;;;19.02;96.19;101816.91;4974885;28;45531;-79
2021/06/04 05:48:11;;;;;;;;;11.50;10.75;;;;;18.89;95.75;101811.47;4970094;28;45487;-79
2021/06/04 05:50:39;;;;;;;;;13.25;11.25;;;;;18.68;93.75;101763.03;4973546;28;45496;-78
2021/06/04 05:53:07;;;;;;;;;19.75;14.75;;;;;18.86;93.60;101773.53;4976204;28;45519;-77
2021/06/04 05:55:35;;;;;;;;;9.50;7.50;;;;;18.80;93.48;101758.78;4973391;28;46557;-79
2021/06/04 05:58:01;;;;;;;;;5.25;5.25;;;;;18.81;93.01;101741.84;4982765;28;45509;-78
2021/06/04 06:00:42;;;;;;;;;8.25;7.00;;;;;18.74;92.18;101724.50;4977384;28;50646;-77
2021/06/04 06:03:08;;;;;;;;;8.75;8.50;;;;;18.68;91.68;101731.06;4973495;28;45557;-78
2021/06/04 06:05:34;;;;;;;;;10.00;7.00;;;;;18.58;90.99;101748.53;4980500;28;45713;-76
2021/06/04 06:07:59;;;;;;;;;8.50;7.00;;;;;18.49;90.34;101741.09;4986430;28;45761;-79
2021/06/04 06:10:25;;;;;;;;;12.00;8.00;;;;;18.45;89.74;101747.56;4978869;28;45574;-78
2021/06/04 06:12:52;;;;;;;;;9.00;5.75;;;;;18.43;89.76;101754.78;4980231;28;46217;-79
2021/06/04 06:15:20;;;;;;;;;9.00;6.50;;;;;18.38;88.86;101763.03;4980318;28;45397;-79
2021/06/04 06:17:45;;;;;;;;;6.50;5.75;;;;;18.37;89.40;101766.63;4989861;28;45365;-78
2021/06/04 06:20:13;;;;;;;;;7.75;6.75;;;;;18.38;89.60;101770.19;4975023;28;45532;-78
2021/06/04 06:22:40;;;;;;;;;12.00;8.25;;;;;18.35;89.46;101759.69;4983431;28;46280;-80
2021/06/04 06:25:17;;;;;;;;;6.00;5.50;;;;;18.40;89.22;101762.94;4974677;28;45733;-78
2021/06/04 06:27:43;;;;;;;;;6.00;5.00;;;;;18.36;88.69;101729.47;4978581;28;45733;-78
2021/06/04 06:30:14;;;;;;;;;6.25;6.00;;;;;18.35;89.01;101731.28;4979112;28;45444;-78
2021/06/04 06:32:40;;;;;;;;;6.25;5.00;;;;;18.30;89.20;101700.56;4974688;28;45597;-78
2021/06/04 06:35:06;;;;;;;;;7.00;7.00;;;;;18.30;88.12;101695.25;4973459;28;45705;-78
2021/06/04 06:37:32;;;;;;;;;110.75;97.25;;;;;18.36;89.61;101703.72;4975016;28;45433;-80
2021/06/04 06:39:57;;;;;;;;;7.00;5.50;;;;;18.41;89.03;101693.66;4973279;28;45518;-79
2021/06/04 06:42:23;;;;;;;;;5.75;5.75;;;;;18.37;87.84;101681.47;4975600;28;46008;-79
2021/06/04 06:44:48;;;;;;;;;7.75;6.50;;;;;18.41;87.98;101687.47;4974304;28;45392;-79
2021/06/04 06:47:14;;;;;;;;;8.25;8.00;;;;;18.39;88.67;101700.88;4974336;28;45418;-78
2021/06/04 06:49:39;;;;;;;;;5.75;5.25;;;;;18.55;87.72;101738.06;4978890;28;45668;-77
2021/06/04 06:52:05;;;;;;;;;5.00;5.00;;;;;18.51;85.40;101723.22;4970706;28;45459;-79
2021/06/04 06:54:32;;;;;;;;;7.00;5.00;;;;;18.59;86.01;101720.13;4975170;28;45491;-80
2021/06/04 06:56:59;;;;;;;;;6.00;5.00;;;;;18.69;84.01;101719.50;4975431;28;45437;-78
2021/06/04 06:59:29;;;;;;;;;7.25;6.00;;;;;18.76;85.12;101727.94;4959786;28;47591;-79
2021/06/04 07:01:54;;;;;;;;;5.50;5.00;;;;;18.84;84.68;101743.44;4972925;28;46088;-78
2021/06/04 07:04:19;;;;;;;;;5.25;5.00;;;;;19.00;84.13;101742.44;4973715;28;46610;-79
2021/06/04 07:06:45;;;;;;;;;6.50;4.75;;;;;19.22;83.71;101739.25;4973409;28;45580;-81
2021/06/04 07:09:14;;;;;;;;;4.00;4.00;;;;;19.35;84.09;101726.00;4974408;28;45290;-81
2021/06/04 07:11:50;;;;;;;;;4.75;4.25;;;;;19.81;83.62;101745.22;4973650;28;45551;-80
2021/06/04 07:14:17;;;;;;;;;6.50;4.50;;;;;20.21;83.00;101749.75;4972015;28;45562;-80
2021/06/04 07:16:43;;;;;;;;;7.00;6.00;;;;;20.68;81.02;101745.69;4971711;28;45492;-81
2021/06/04 07:19:08;;;;;;;;;5.00;5.00;;;;;21.31;80.61;101747.47;4973171;28;45503;-83
2021/06/04 07:21:37;;;;;;;;;7.25;7.25;;;;;22.13;78.82;101746.72;4972952;28;57194;-80
2021/06/04 07:24:03;;;;;;;;;32.50;29.25;;;;;22.99;76.81;101747.28;4973193;28;45700;-82
2021/06/04 07:26:29;;;;;;;;;6.75;5.50;;;;;23.47;73.19;101742.47;4972573;28;45780;-84
2021/06/04 07:29:00;;;;;;;;;5.50;5.50;;;;;23.83;72.20;101735.09;4975087;28;45704;-83
2021/06/04 07:31:27;;;;;;;;;7.75;6.75;;;;;24.04;71.14;101738.66;4982865;28;46232;-83
2021/06/04 07:33:55;;;;;;;;;7.25;6.00;;;;;24.03;70.30;101736.13;4972643;28;45806;-83
2021/06/04 07:36:28;;;;;;;;;5.00;5.00;;;;;24.03;70.09;101742.34;4972556;28;45538;-83
2021/06/04 07:38:53;;;;;;;;;7.50;7.00;;;;;24.07;68.92;101741.09;4966489;28;45682;-84
2021/06/04 07:41:19;;;;;;;;;9.75;7.75;;;;;24.35;68.78;101738.75;4974185;28;45578;-83
2021/06/04 07:43:46;;;;;;;;;5.00;5.00;;;;;25.40;66.63;101726.84;4972313;28;45401;-84
2021/06/04 07:46:13;;;;;;;;;8.25;8.00;;;;;25.47;65.22;101732.50;4970454;28;45549;-85
2021/06/04 07:48:39;;;;;;;;;6.25;6.00;;;;;25.52;64.63;101738.34;4970889;28;47741;-85
2021/06/04 07:51:08;;;;;;;;;9.50;8.25;;;;;25.85;64.48;101737.16;4972118;28;45744;-84
2021/06/04 07:53:36;;;;;;;;;5.25;5.00;;;;;26.21;63.83;101743.66;4973127;28;45928;-86
2021/06/04 07:56:04;;;;;;;;;5.75;5.75;;;;;25.99;62.06;101736.69;4967470;28;45408;-87
2021/06/04 07:58:29;;;;;;;;;7.00;7.00;;;;;26.16;62.42;101740.56;4970811;28;45436;-86
2021/06/04 08:00:55;;;;;;;;;59.75;47.00;;;;;27.48;62.18;101731.47;4973141;28;46414;-82
2021/06/04 08:03:24;;;;;;;;;7.25;6.00;;;;;29.24;59.00;101735.03;4973951;28;45541;-84
2021/06/04 08:05:50;;;;;;;;;5.25;5.00;;;;;30.77;56.63;101734.50;4975576;28;45969;-84
2021/06/04 08:08:17;;;;;;;;;5.50;5.50;;;;;31.75;53.87;101717.75;4989208;28;45501;-82
2021/06/04 08:10:43;;;;;;;;;9.75;8.00;;;;;33.92;51.82;101718.28;4968239;28;45524;-85
2021/06/04 08:13:15;;;;;;;;;4.75;4.75;;;;;36.03;49.39;101717.75;4974329;28;45470;-85
2021/06/04 08:15:45;;;;;;;;;5.50;5.50;;;;;37.44;44.21;101711.72;4968541;28;45341;-86
2021/06/04 08:18:10;;;;;;;;;5.75;4.50;;;;;38.48;41.23;101715.75;4974842;28;45314;-86
2021/06/04 08:20:37;;;;;;;;;5.00;5.00;;;;;38.72;40.40;101716.75;4975869;28;45476;-84
2021/06/04 08:23:09;;;;;;;;;5.00;4.00;;;;;38.40;39.91;101723.44;4991449;28;45361;-86
2021/06/04 08:25:38;;;;;;;;;5.00;4.25;;;;;37.21;38.20;101730.56;4969392;28;45308;-85
2021/06/04 08:28:05;;;;;;;;;4.00;2.50;;;;;36.35;40.23;101717.94;4976602;28;45495;-88
2021/06/04 08:30:30;;;;;;;;;4.50;4.00;;;;;35.74;39.82;101720.84;4977840;28;45770;-86
2021/06/04 08:32:56;;;;;;;;;5.00;4.00;;;;;34.55;39.62;101725.78;4975523;28;45474;-85
2021/06/04 08:35:23;;;;;;;;;4.25;4.25;;;;;34.03;40.59;101727.88;4984591;28;46001;-84
2021/06/04 08:37:48;;;;;;;;;6.25;4.00;;;;;34.49;40.91;101725.53;4977639;28;45431;-83
2021/06/04 08:40:22;;;;;;;;;3.00;3.00;;;;;35.87;39.92;101725.50;4977241;28;45471;-85
2021/06/04 08:43:07;;;;;;;;;2.75;2.75;;;;;36.84;38.30;101733.84;4975757;28;45444;-83
2021/06/04 08:45:40;;;;;;;;;3.25;2.00;;;;;37.71;36.73;101736.22;4968948;28;45476;-79
2021/06/04 08:48:21;;;;;;;;;3.00;2.00;;;;;37.54;35.95;101744.97;4973568;28;45512;-81
2021/06/04 08:51:20;;;;;;;;;1.50;1.50;;;;;36.95;35.37;101739.75;4962758;28;45632;-78
2021/06/04 08:54:29;;;;;;;;;2.50;1.00;;;;;34.65;36.45;101740.75;4974737;28;45660;-81
2021/06/04 08:57:13;;;;;;;;;2.00;1.75;;;;;33.48;38.61;101741.16;5003120;28;45485;-83
2021/06/04 08:59:40;;;;;;;;;0.00;0.00;;;;;33.50;38.64;101736.34;4973106;28;45596;-81
2021/06/04 09:02:10;;;;;;;;;0.50;0.00;;;;;36.17;39.04;101736.88;4976541;28;45974;-82
2021/06/04 09:04:42;;;;;;;;;0.00;0.00;;;;;38.47;36.18;101730.53;4968005;28;45309;-84
2021/06/04 09:07:13;;;;;;;;;2.25;1.50;;;;;40.31;33.11;101708.16;4975337;28;45487;-79
2021/06/04 09:09:47;;;;;;;;;1.00;1.00;;;;;40.23;32.04;101731.38;4975128;28;45383;-82
2021/06/04 09:12:37;;;;;;;;;5.00;3.00;;;;;39.76;32.00;101741.44;4972197;28;46209;-84
2021/06/04 09:15:06;;;;;;;;;4.75;2.25;;;;;42.13;31.92;101734.94;4969214;28;45847;-84
2021/06/04 09:17:46;;;;;;;;;2.50;1.75;;;;;44.29;28.97;101734.44;4963224;28;45537;-92
2021/06/04 09:20:23;;;;;;;;;2.00;2.00;;;;;44.66;28.05;101739.94;4963330;28;45409;-83
2021/06/04 09:22:54;;;;;;;;;3.75;2.50;;;;;46.86;26.88;101742.84;4975739;28;47188;-87
2021/06/04 09:25:23;;;;;;;;;1.00;1.00;;;;;48.45;25.18;101752.53;4971031;28;46820;-80
2021/06/04 09:28:12;;;;;;;;;1.00;1.00;;;;;49.02;24.04;101750.69;4969898;28;45802;-81
2021/06/04 09:30:45;;;;;;;;;4.00;2.50;;;;;50.59;22.26;101754.81;4975798;28;45464;-80
2021/06/04 09:33:28;;;;;;;;;3.75;2.00;;;;;50.51;20.33;101763.09;4973700;28;47366;-78
2021/06/04 09:35:57;;;;;;;;;5.25;2.75;;;;;47.48;22.25;101758.09;4972595;28;45472;-78
2021/06/04 09:38:39;;;;;;;;;4.25;2.25;;;;;44.98;23.43;101761.13;4972910;28;45744;-82
2021/06/04 09:41:24;;;;;;;;;0.75;0.75;;;;;42.34;25.21;101755.47;4971521;28;45489;-84
2021/06/04 09:44:03;;;;;;;;;8.00;8.00;;;;;41.03;27.36;101754.66;4972152;28;46677;-84
2021/06/04 09:46:34;;;;;;;;;2.00;2.00;;;;;40.79;27.11;101756.63;4971484;28;45788;-84
2021/06/04 09:49:00;;;;;;;;;2.00;2.00;;;;;40.87;27.88;101765.34;4973028;28;45381;-83
2021/06/04 09:51:38;;;;;;;;;1.50;1.50;;;;;42.01;27.30;101769.25;4969968;28;45531;-78
2021/06/04 09:54:27;;;;;;;;;2.75;2.75;;;;;40.83;26.86;101768.84;4971593;28;47272;-85
2021/06/04 09:57:15;;;;;;;;;3.50;2.75;;;;;38.90;28.59;101770.91;4967212;28;45539;-83
2021/06/04 09:59:41;;;;;;;;;2.75;2.75;;;;;38.85;29.65;101771.59;4973786;28;45626;-82
2021/06/04 10:02:29;;;;;;;;;3.75;2.75;;;;;40.51;28.74;101773.91;4973966;28;45475;-84
2021/06/04 10:05:12;;;;;;;;;3.75;2.75;;;;;41.01;27.74;101771.47;4974728;28;45557;-82
2021/06/04 10:07:38;;;;;;;;;6.00;4.75;;;;;39.77;27.95;101767.88;4971812;28;45683;-85
2021/06/04 10:10:32;;;;;;;;;5.25;5.25;;;;;38.45;29.90;101767.56;4970535;28;45294;-82
2021/06/04 10:13:00;;;;;;;;;6.00;4.75;;;;;37.63;30.44;101769.38;4973609;28;45467;-85
2021/06/04 10:15:26;;;;;;;;;6.00;4.75;;;;;37.86;31.60;101769.72;4975274;28;47355;-82
2021/06/04 10:20:29;;;;;;;;;7.00;7.00;;;;;39.83;28.55;101773.28;4964861;28;45504;-82
2021/06/04 10:23:14;;;;;;;;;4.00;4.00;;;;;38.05;29.45;101771.44;4975783;28;45486;-84
2021/06/04 10:25:51;;;;;;;;;3.00;2.00;;;;;36.52;30.90;101773.94;4970616;28;45440;-82
2021/06/04 10:28:37;;;;;;;;;3.25;3.25;;;;;35.28;32.88;101782.50;4967981;28;45620;-85
2021/06/04 10:31:15;;;;;;;;;2.00;2.00;;;;;34.10;34.16;101772.44;4966322;28;45536;-85
2021/06/04 10:33:47;;;;;;;;;3.75;2.00;;;;;33.04;35.73;101787.47;4968024;28;45459;-80
2021/06/04 10:36:17;;;;;;;;;5.00;3.00;;;;;32.30;36.81;101779.16;4975421;28;45559;-84
2021/06/04 10:38:50;;;;;;;;;4.00;4.00;;;;;31.67;37.83;101769.41;4972032;28;45923;-85
2021/06/04 10:41:23;;;;;;;;;5.25;4.00;;;;;31.32;39.25;101779.81;4982904;28;45349;-78
2021/06/04 10:44:12;;;;;;;;;4.25;4.25;;;;;31.07;39.39;101772.75;4985072;28;45427;-77
2021/06/04 10:47:01;;;;;;;;;5.00;5.00;;;;;30.73;40.35;101782.00;4983836;28;45605;-79
2021/06/04 10:49:45;;;;;;;;;4.50;4.50;;;;;30.57;40.54;101790.97;4983964;28;45790;-80
2021/06/04 10:52:29;;;;;;;;;5.00;5.00;;;;;30.25;41.50;101785.59;5007687;28;47018;-82
2021/06/04 10:55:03;;;;;;;;;4.25;3.75;;;;;29.89;42.37;101789.41;4974090;28;45721;-81
2021/06/04 10:57:41;;;;;;;;;5.00;5.00;;;;;29.55;42.71;101788.66;4974982;28;45452;-77
2021/06/04 11:00:11;;;;;;;;;5.00;5.00;;;;;29.23;43.16;101790.19;4976527;28;45883;-86
2021/06/04 11:03:00;;;;;;;;;6.25;5.50;;;;;28.94;43.56;101787.00;4973291;28;45486;-76
2021/06/04 11:05:50;;;;;;;;;6.00;6.00;;;;;28.85;44.21;101789.63;4978234;28;45654;-77
2021/06/04 11:08:36;;;;;;;;;3.00;2.00;;;;;28.90;44.23;101788.28;4971987;28;46401;-78
2021/06/04 11:11:16;;;;;;;;;4.50;4.50;;;;;29.02;44.57;101782.47;4975412;28;45401;-78
2021/06/04 11:14:00;;;;;;;;;7.00;5.25;;;;;29.20;44.55;101785.09;4975367;28;45891;-78
2021/06/04 11:16:39;;;;;;;;;5.00;4.00;;;;;29.41;43.87;101778.41;4973041;28;46071;-76
2021/06/04 11:19:32;;;;;;;;;4.75;4.75;;;;;29.47;43.65;101775.91;4965164;28;47596;-77
2021/06/04 11:22:02;;;;;;;;;5.00;4.00;;;;;29.36;44.39;101759.97;4964310;28;45657;-78
2021/06/04 11:24:55;;;;;;;;;5.50;5.00;;;;;29.70;43.69;101759.91;4968585;28;45353;-77
2021/06/04 11:27:28;;;;;;;;;5.25;5.25;;;;;29.93;44.34;101754.69;4963719;28;45485;-77
2021/06/04 11:29:55;;;;;;;;;6.00;5.00;;;;;29.95;44.57;101747.22;4979243;28;48291;-78
2021/06/04 11:32:41;;;;;;;;;5.75;5.75;;;;;29.96;43.48;101756.22;4965876;28;45869;-78
2021/06/04 11:35:20;;;;;;;;;7.25;7.00;;;;;30.04;43.26;101761.66;4970795;28;45423;-78
2021/06/04 11:38:10;;;;;;;;;4.25;4.25;;;;;30.03;43.72;101763.50;4963939;28;45668;-77